sensor_id;sensor_type;location;lat;lon;timestamp;P1;durP1;ratioP1;P2;durP2;ratioP2
65373;SDS011;52070;53.760;9.678;2023-05-07T00:00:48;11.52;;;8.10;;
65373;SDS011;52070;53.760;9.678;2023-05-07T00:03:16;13.40;;;8.52;;
65373;SDS011;52070;53.760;9.678;2023-05-07T00:05:44;15.00;;;9.25;;
65373;SDS011;52070;53.760;9.678;2023-05-07T00:08:11;18.23;;;8.05;;
65373;SDS011;52070;53.760;9.678;2023-05-07T00:10:38;12.60;;;8.45;;
65373;SDS011;52070;53.760;9.678;2023-05-07T00:13:07;15.63;;;8.18;;
65373;SDS011;52070;53.760;9.678;2023-05-07T00:15:34;12.75;;;8.50;;
65373;SDS011;52070;53.760;9.678;2023-05-07T00:18:01;14.23;;;8.48;;
65373;SDS011;52070;53.760;9.678;2023-05-07T00:20:28;14.48;;;8.00;;
65373;SDS011;52070;53.760;9.678;2023-05-07T00:22:55;13.23;;;8.60;;
65373;SDS011;52070;53.760;9.678;2023-05-07T00:25:22;12.25;;;8.45;;
65373;SDS011;52070;53.760;9.678;2023-05-07T00:27:49;15.40;;;8.63;;
65373;SDS011;52070;53.760;9.678;2023-05-07T00:30:17;13.13;;;8.60;;
65373;SDS011;52070;53.760;9.678;2023-05-07T00:32:44;12.85;;;8.32;;
65373;SDS011;52070;53.760;9.678;2023-05-07T00:35:12;13.65;;;8.95;;
65373;SDS011;52070;53.760;9.678;2023-05-07T00:37:38;14.57;;;8.82;;
65373;SDS011;52070;53.760;9.678;2023-05-07T00:40:06;11.60;;;8.48;;
65373;SDS011;52070;53.760;9.678;2023-05-07T00:42:34;16.27;;;8.75;;
65373;SDS011;52070;53.760;9.678;2023-05-07T00:45:01;12.07;;;8.15;;
65373;SDS011;52070;53.760;9.678;2023-05-07T00:47:29;19.65;;;8.15;;
65373;SDS011;52070;53.760;9.678;2023-05-07T00:49:57;14.18;;;8.30;;
65373;SDS011;52070;53.760;9.678;2023-05-07T00:52:25;14.50;;;8.35;;
65373;SDS011;52070;53.760;9.678;2023-05-07T00:54:53;14.20;;;7.97;;
65373;SDS011;52070;53.760;9.678;2023-05-07T00:57:20;10.63;;;7.53;;
65373;SDS011;52070;53.760;9.678;2023-05-07T00:59:48;15.52;;;7.97;;
65373;SDS011;52070;53.760;9.678;2023-05-07T01:02:15;14.52;;;8.50;;
65373;SDS011;52070;53.760;9.678;2023-05-07T01:04:44;14.27;;;8.35;;
65373;SDS011;52070;53.760;9.678;2023-05-07T01:07:11;12.77;;;7.88;;
65373;SDS011;52070;53.760;9.678;2023-05-07T01:09:39;14.05;;;8.63;;
65373;SDS011;52070;53.760;9.678;2023-05-07T01:12:06;12.93;;;8.75;;
65373;SDS011;52070;53.760;9.678;2023-05-07T01:14:34;11.68;;;8.07;;
65373;SDS011;52070;53.760;9.678;2023-05-07T01:17:01;13.68;;;7.80;;
65373;SDS011;52070;53.760;9.678;2023-05-07T01:19:28;12.25;;;8.52;;
65373;SDS011;52070;53.760;9.678;2023-05-07T01:21:59;14.02;;;9.15;;
65373;SDS011;52070;53.760;9.678;2023-05-07T01:24:31;13.60;;;8.63;;
65373;SDS011;52070;53.760;9.678;2023-05-07T01:26:58;13.45;;;8.60;;
65373;SDS011;52070;53.760;9.678;2023-05-07T01:29:26;18.00;;;9.60;;
65373;SDS011;52070;53.760;9.678;2023-05-07T01:31:54;14.43;;;8.35;;
65373;SDS011;52070;53.760;9.678;2023-05-07T01:34:25;12.40;;;8.60;;
65373;SDS011;52070;53.760;9.678;2023-05-07T01:36:53;15.15;;;8.38;;
65373;SDS011;52070;53.760;9.678;2023-05-07T01:39:23;12.18;;;8.82;;
65373;SDS011;52070;53.760;9.678;2023-05-07T01:41:53;16.70;;;8.45;;
65373;SDS011;52070;53.760;9.678;2023-05-07T01:44:22;12.77;;;8.57;;
65373;SDS011;52070;53.760;9.678;2023-05-07T01:46:49;13.30;;;8.57;;
65373;SDS011;52070;53.760;9.678;2023-05-07T01:49:17;13.65;;;8.45;;
65373;SDS011;52070;53.760;9.678;2023-05-07T01:51:44;15.50;;;9.07;;
65373;SDS011;52070;53.760;9.678;2023-05-07T01:54:11;13.57;;;8.93;;
65373;SDS011;52070;53.760;9.678;2023-05-07T01:56:38;14.68;;;9.07;;
65373;SDS011;52070;53.760;9.678;2023-05-07T01:59:07;15.18;;;9.05;;
65373;SDS011;52070;53.760;9.678;2023-05-07T02:01:34;14.52;;;8.55;;
65373;SDS011;52070;53.760;9.678;2023-05-07T02:04:01;11.50;;;8.27;;
65373;SDS011;52070;53.760;9.678;2023-05-07T02:06:28;15.77;;;8.98;;
65373;SDS011;52070;53.760;9.678;2023-05-07T02:08:56;11.90;;;8.30;;
65373;SDS011;52070;53.760;9.678;2023-05-07T02:11:23;14.60;;;8.73;;
65373;SDS011;52070;53.760;9.678;2023-05-07T02:13:50;13.93;;;8.68;;
65373;SDS011;52070;53.760;9.678;2023-05-07T02:16:19;12.38;;;8.80;;
65373;SDS011;52070;53.760;9.678;2023-05-07T02:18:47;14.35;;;8.45;;
65373;SDS011;52070;53.760;9.678;2023-05-07T02:21:14;14.88;;;8.65;;
65373;SDS011;52070;53.760;9.678;2023-05-07T02:23:41;12.95;;;8.82;;
65373;SDS011;52070;53.760;9.678;2023-05-07T02:26:08;12.85;;;8.32;;
65373;SDS011;52070;53.760;9.678;2023-05-07T02:28:35;13.32;;;8.23;;
65373;SDS011;52070;53.760;9.678;2023-05-07T02:31:02;12.27;;;8.27;;
65373;SDS011;52070;53.760;9.678;2023-05-07T02:33:31;16.45;;;8.75;;
65373;SDS011;52070;53.760;9.678;2023-05-07T02:36:04;12.93;;;8.30;;
65373;SDS011;52070;53.760;9.678;2023-05-07T02:38:32;13.38;;;8.73;;
65373;SDS011;52070;53.760;9.678;2023-05-07T02:40:59;17.35;;;8.70;;
65373;SDS011;52070;53.760;9.678;2023-05-07T02:43:26;13.13;;;8.20;;
65373;SDS011;52070;53.760;9.678;2023-05-07T02:45:59;13.55;;;8.18;;
65373;SDS011;52070;53.760;9.678;2023-05-07T02:48:27;12.95;;;7.72;;
65373;SDS011;52070;53.760;9.678;2023-05-07T02:50:56;14.43;;;8.65;;
65373;SDS011;52070;53.760;9.678;2023-05-07T02:53:23;14.85;;;8.55;;
65373;SDS011;52070;53.760;9.678;2023-05-07T02:55:51;11.30;;;7.55;;
65373;SDS011;52070;53.760;9.678;2023-05-07T02:58:19;10.55;;;7.38;;
65373;SDS011;52070;53.760;9.678;2023-05-07T03:00:46;12.25;;;7.68;;
65373;SDS011;52070;53.760;9.678;2023-05-07T03:03:13;13.93;;;7.82;;
65373;SDS011;52070;53.760;9.678;2023-05-07T03:05:40;13.32;;;7.68;;
65373;SDS011;52070;53.760;9.678;2023-05-07T03:08:09;14.18;;;7.35;;
65373;SDS011;52070;53.760;9.678;2023-05-07T03:10:36;13.40;;;7.75;;
65373;SDS011;52070;53.760;9.678;2023-05-07T03:13:03;10.13;;;7.32;;
65373;SDS011;52070;53.760;9.678;2023-05-07T03:15:30;10.52;;;6.82;;
65373;SDS011;52070;53.760;9.678;2023-05-07T03:17:57;11.98;;;7.43;;
65373;SDS011;52070;53.760;9.678;2023-05-07T03:20:24;11.02;;;7.40;;
65373;SDS011;52070;53.760;9.678;2023-05-07T03:22:51;13.40;;;8.10;;
65373;SDS011;52070;53.760;9.678;2023-05-07T03:25:20;11.98;;;7.47;;
65373;SDS011;52070;53.760;9.678;2023-05-07T03:27:47;13.82;;;7.18;;
65373;SDS011;52070;53.760;9.678;2023-05-07T03:30:14;11.60;;;7.03;;
65373;SDS011;52070;53.760;9.678;2023-05-07T03:32:41;13.43;;;7.03;;
65373;SDS011;52070;53.760;9.678;2023-05-07T03:35:08;10.45;;;7.25;;
65373;SDS011;52070;53.760;9.678;2023-05-07T03:37:35;10.55;;;7.05;;
65373;SDS011;52070;53.760;9.678;2023-05-07T03:40:02;10.43;;;7.07;;
65373;SDS011;52070;53.760;9.678;2023-05-07T03:42:31;15.55;;;7.75;;
65373;SDS011;52070;53.760;9.678;2023-05-07T03:44:58;13.90;;;8.20;;
65373;SDS011;52070;53.760;9.678;2023-05-07T03:47:25;12.77;;;7.65;;
65373;SDS011;52070;53.760;9.678;2023-05-07T03:49:52;17.05;;;8.05;;
65373;SDS011;52070;53.760;9.678;2023-05-07T03:52:20;11.82;;;8.15;;
65373;SDS011;52070;53.760;9.678;2023-05-07T03:54:51;12.85;;;7.70;;
65373;SDS011;52070;53.760;9.678;2023-05-07T03:57:19;13.40;;;7.45;;
65373;SDS011;52070;53.760;9.678;2023-05-07T03:59:50;15.25;;;7.45;;
65373;SDS011;52070;53.760;9.678;2023-05-07T04:02:17;9.82;;;7.32;;
65373;SDS011;52070;53.760;9.678;2023-05-07T04:04:44;11.95;;;8.32;;
65373;SDS011;52070;53.760;9.678;2023-05-07T04:07:11;12.27;;;8.00;;
65373;SDS011;52070;53.760;9.678;2023-05-07T04:09:38;13.15;;;7.05;;
65373;SDS011;52070;53.760;9.678;2023-05-07T04:12:05;11.55;;;7.82;;
65373;SDS011;52070;53.760;9.678;2023-05-07T04:14:32;11.35;;;7.90;;
65373;SDS011;52070;53.760;9.678;2023-05-07T04:17:00;10.82;;;8.43;;
65373;SDS011;52070;53.760;9.678;2023-05-07T04:19:28;11.20;;;7.70;;
65373;SDS011;52070;53.760;9.678;2023-05-07T04:21:55;21.15;;;7.72;;
65373;SDS011;52070;53.760;9.678;2023-05-07T04:24:22;11.40;;;7.88;;
65373;SDS011;52070;53.760;9.678;2023-05-07T04:26:49;12.57;;;8.43;;
65373;SDS011;52070;53.760;9.678;2023-05-07T04:29:16;17.13;;;8.05;;
65373;SDS011;52070;53.760;9.678;2023-05-07T04:31:43;11.07;;;7.97;;
65373;SDS011;52070;53.760;9.678;2023-05-07T04:34:12;11.27;;;7.82;;
65373;SDS011;52070;53.760;9.678;2023-05-07T04:36:39;13.90;;;8.77;;
65373;SDS011;52070;53.760;9.678;2023-05-07T04:39:06;10.95;;;7.60;;
65373;SDS011;52070;53.760;9.678;2023-05-07T04:41:35;12.68;;;7.85;;
65373;SDS011;52070;53.760;9.678;2023-05-07T04:44:02;13.20;;;7.60;;
65373;SDS011;52070;53.760;9.678;2023-05-07T04:46:31;10.80;;;7.57;;
65373;SDS011;52070;53.760;9.678;2023-05-07T04:48:58;11.18;;;7.70;;
65373;SDS011;52070;53.760;9.678;2023-05-07T04:51:26;13.32;;;7.88;;
65373;SDS011;52070;53.760;9.678;2023-05-07T04:53:53;10.85;;;7.80;;
65373;SDS011;52070;53.760;9.678;2023-05-07T04:56:20;12.43;;;7.75;;
65373;SDS011;52070;53.760;9.678;2023-05-07T04:58:47;12.70;;;7.63;;
65373;SDS011;52070;53.760;9.678;2023-05-07T05:01:14;10.90;;;7.53;;
65373;SDS011;52070;53.760;9.678;2023-05-07T05:03:41;11.15;;;7.22;;
65373;SDS011;52070;53.760;9.678;2023-05-07T05:06:08;11.40;;;7.10;;
65373;SDS011;52070;53.760;9.678;2023-05-07T05:08:36;12.48;;;7.40;;
65373;SDS011;52070;53.760;9.678;2023-05-07T05:11:03;10.13;;;6.65;;
65373;SDS011;52070;53.760;9.678;2023-05-07T05:13:30;9.35;;;7.00;;
65373;SDS011;52070;53.760;9.678;2023-05-07T05:15:57;12.77;;;7.72;;
65373;SDS011;52070;53.760;9.678;2023-05-07T05:18:24;9.90;;;7.05;;
65373;SDS011;52070;53.760;9.678;2023-05-07T05:20:51;11.75;;;7.53;;
65373;SDS011;52070;53.760;9.678;2023-05-07T05:23:18;10.82;;;6.72;;
65373;SDS011;52070;53.760;9.678;2023-05-07T05:25:47;10.18;;;7.45;;
65373;SDS011;52070;53.760;9.678;2023-05-07T05:28:14;15.50;;;7.68;;
65373;SDS011;52070;53.760;9.678;2023-05-07T05:30:41;11.18;;;6.90;;
65373;SDS011;52070;53.760;9.678;2023-05-07T05:33:08;11.43;;;7.30;;
65373;SDS011;52070;53.760;9.678;2023-05-07T05:35:35;10.68;;;7.30;;
65373;SDS011;52070;53.760;9.678;2023-05-07T05:38:02;11.18;;;6.90;;
65373;SDS011;52070;53.760;9.678;2023-05-07T05:40:29;10.23;;;6.97;;
65373;SDS011;52070;53.760;9.678;2023-05-07T05:42:57;9.40;;;6.75;;
65373;SDS011;52070;53.760;9.678;2023-05-07T05:45:24;11.18;;;6.78;;
65373;SDS011;52070;53.760;9.678;2023-05-07T05:47:52;10.02;;;5.97;;
65373;SDS011;52070;53.760;9.678;2023-05-07T05:50:19;9.00;;;5.85;;
65373;SDS011;52070;53.760;9.678;2023-05-07T05:52:46;10.00;;;5.28;;
65373;SDS011;52070;53.760;9.678;2023-05-07T05:55:12;9.93;;;5.63;;
65373;SDS011;52070;53.760;9.678;2023-05-07T05:57:40;10.43;;;5.50;;
65373;SDS011;52070;53.760;9.678;2023-05-07T06:00:09;8.63;;;5.35;;
65373;SDS011;52070;53.760;9.678;2023-05-07T06:02:36;7.47;;;5.40;;
65373;SDS011;52070;53.760;9.678;2023-05-07T06:05:04;10.00;;;6.25;;
65373;SDS011;52070;53.760;9.678;2023-05-07T06:07:32;8.55;;;5.70;;
65373;SDS011;52070;53.760;9.678;2023-05-07T06:10:00;9.90;;;6.03;;
65373;SDS011;52070;53.760;9.678;2023-05-07T06:12:27;10.98;;;6.25;;
65373;SDS011;52070;53.760;9.678;2023-05-07T06:14:54;10.40;;;6.18;;
65373;SDS011;52070;53.760;9.678;2023-05-07T06:17:22;9.82;;;6.28;;
65373;SDS011;52070;53.760;9.678;2023-05-07T06:19:49;10.30;;;6.53;;
65373;SDS011;52070;53.760;9.678;2023-05-07T06:22:17;10.20;;;6.60;;
65373;SDS011;52070;53.760;9.678;2023-05-07T06:24:44;9.77;;;6.75;;
65373;SDS011;52070;53.760;9.678;2023-05-07T06:27:11;9.95;;;6.53;;
65373;SDS011;52070;53.760;9.678;2023-05-07T06:29:38;9.40;;;6.53;;
65373;SDS011;52070;53.760;9.678;2023-05-07T06:32:06;10.20;;;6.80;;
65373;SDS011;52070;53.760;9.678;2023-05-07T06:34:34;10.27;;;6.57;;
65373;SDS011;52070;53.760;9.678;2023-05-07T06:37:01;10.48;;;6.32;;
65373;SDS011;52070;53.760;9.678;2023-05-07T06:39:29;9.70;;;6.60;;
65373;SDS011;52070;53.760;9.678;2023-05-07T06:41:56;11.27;;;6.25;;
65373;SDS011;52070;53.760;9.678;2023-05-07T06:44:23;9.15;;;5.45;;
65373;SDS011;52070;53.760;9.678;2023-05-07T06:46:50;9.57;;;6.38;;
65373;SDS011;52070;53.760;9.678;2023-05-07T06:49:17;8.93;;;6.32;;
65373;SDS011;52070;53.760;9.678;2023-05-07T06:51:46;9.32;;;6.55;;
65373;SDS011;52070;53.760;9.678;2023-05-07T06:54:13;9.55;;;6.53;;
65373;SDS011;52070;53.760;9.678;2023-05-07T06:56:40;9.43;;;6.45;;
65373;SDS011;52070;53.760;9.678;2023-05-07T06:59:07;9.23;;;5.85;;
65373;SDS011;52070;53.760;9.678;2023-05-07T07:01:34;10.32;;;6.45;;
65373;SDS011;52070;53.760;9.678;2023-05-07T07:04:03;9.13;;;5.93;;
65373;SDS011;52070;53.760;9.678;2023-05-07T07:06:30;8.30;;;5.80;;
65373;SDS011;52070;53.760;9.678;2023-05-07T07:08:59;9.40;;;6.25;;
65373;SDS011;52070;53.760;9.678;2023-05-07T07:11:27;8.20;;;5.72;;
65373;SDS011;52070;53.760;9.678;2023-05-07T07:13:54;7.88;;;6.03;;
65373;SDS011;52070;53.760;9.678;2023-05-07T07:16:21;10.02;;;5.68;;
65373;SDS011;52070;53.760;9.678;2023-05-07T07:18:48;7.40;;;5.72;;
65373;SDS011;52070;53.760;9.678;2023-05-07T07:21:14;8.55;;;5.13;;
65373;SDS011;52070;53.760;9.678;2023-05-07T07:26:54;7.40;;;5.60;;
65373;SDS011;52070;53.760;9.678;2023-05-07T07:29:22;9.35;;;5.60;;
65373;SDS011;52070;53.760;9.678;2023-05-07T07:31:51;8.13;;;5.55;;
65373;SDS011;52070;53.760;9.678;2023-05-07T07:34:18;7.88;;;5.68;;
65373;SDS011;52070;53.760;9.678;2023-05-07T07:36:44;7.97;;;5.50;;
65373;SDS011;52070;53.760;9.678;2023-05-07T07:39:11;8.52;;;5.50;;
65373;SDS011;52070;53.760;9.678;2023-05-07T07:41:38;10.38;;;5.72;;
65373;SDS011;52070;53.760;9.678;2023-05-07T07:44:07;7.78;;;5.78;;
65373;SDS011;52070;53.760;9.678;2023-05-07T07:46:34;7.97;;;5.43;;
65373;SDS011;52070;53.760;9.678;2023-05-07T07:49:01;7.38;;;5.22;;
65373;SDS011;52070;53.760;9.678;2023-05-07T07:51:28;5.93;;;5.00;;
65373;SDS011;52070;53.760;9.678;2023-05-07T07:53:55;6.72;;;5.20;;
65373;SDS011;52070;53.760;9.678;2023-05-07T07:56:23;6.15;;;4.80;;
65373;SDS011;52070;53.760;9.678;2023-05-07T07:58:50;7.93;;;5.43;;
65373;SDS011;52070;53.760;9.678;2023-05-07T08:01:18;7.65;;;4.80;;
65373;SDS011;52070;53.760;9.678;2023-05-07T08:03:45;7.22;;;5.07;;
65373;SDS011;52070;53.760;9.678;2023-05-07T08:06:12;6.82;;;5.00;;
65373;SDS011;52070;53.760;9.678;2023-05-07T08:08:39;6.63;;;4.40;;
65373;SDS011;52070;53.760;9.678;2023-05-07T08:11:06;6.88;;;4.40;;
65373;SDS011;52070;53.760;9.678;2023-05-07T08:13:33;5.85;;;4.60;;
65373;SDS011;52070;53.760;9.678;2023-05-07T08:16:00;6.18;;;4.18;;
65373;SDS011;52070;53.760;9.678;2023-05-07T08:18:28;7.63;;;4.53;;
65373;SDS011;52070;53.760;9.678;2023-05-07T08:20:55;8.57;;;4.47;;
65373;SDS011;52070;53.760;9.678;2023-05-07T08:23:22;6.70;;;4.50;;
65373;SDS011;52070;53.760;9.678;2023-05-07T08:25:50;7.10;;;4.45;;
65373;SDS011;52070;53.760;9.678;2023-05-07T08:28:17;7.10;;;4.60;;
65373;SDS011;52070;53.760;9.678;2023-05-07T08:30:45;6.43;;;4.38;;
65373;SDS011;52070;53.760;9.678;2023-05-07T08:33:12;7.60;;;4.50;;
65373;SDS011;52070;53.760;9.678;2023-05-07T08:35:40;6.95;;;4.28;;
65373;SDS011;52070;53.760;9.678;2023-05-07T08:38:07;7.55;;;4.50;;
65373;SDS011;52070;53.760;9.678;2023-05-07T08:40:36;7.25;;;3.83;;
65373;SDS011;52070;53.760;9.678;2023-05-07T08:43:05;6.28;;;4.50;;
65373;SDS011;52070;53.760;9.678;2023-05-07T08:45:33;6.55;;;4.70;;
65373;SDS011;52070;53.760;9.678;2023-05-07T08:48:02;9.88;;;4.53;;
65373;SDS011;52070;53.760;9.678;2023-05-07T08:50:31;9.13;;;4.32;;
65373;SDS011;52070;53.760;9.678;2023-05-07T08:53:03;7.78;;;4.03;;
65373;SDS011;52070;53.760;9.678;2023-05-07T08:55:31;9.13;;;4.10;;
65373;SDS011;52070;53.760;9.678;2023-05-07T08:57:58;6.90;;;4.30;;
65373;SDS011;52070;53.760;9.678;2023-05-07T09:00:25;6.28;;;4.63;;
65373;SDS011;52070;53.760;9.678;2023-05-07T09:02:52;7.90;;;4.28;;
65373;SDS011;52070;53.760;9.678;2023-05-07T09:05:20;6.57;;;4.75;;
65373;SDS011;52070;53.760;9.678;2023-05-07T09:07:47;8.00;;;4.80;;
65373;SDS011;52070;53.760;9.678;2023-05-07T09:10:15;9.75;;;5.05;;
65373;SDS011;52070;53.760;9.678;2023-05-07T09:12:42;6.05;;;4.45;;
65373;SDS011;52070;53.760;9.678;2023-05-07T09:15:09;5.65;;;4.43;;
65373;SDS011;52070;53.760;9.678;2023-05-07T09:17:37;6.18;;;4.20;;
65373;SDS011;52070;53.760;9.678;2023-05-07T09:20:05;6.28;;;4.15;;
65373;SDS011;52070;53.760;9.678;2023-05-07T09:22:33;8.43;;;4.32;;
65373;SDS011;52070;53.760;9.678;2023-05-07T09:25:00;6.43;;;4.57;;
65373;SDS011;52070;53.760;9.678;2023-05-07T09:27:28;9.02;;;4.90;;
65373;SDS011;52070;53.760;9.678;2023-05-07T09:29:56;7.40;;;4.57;;
65373;SDS011;52070;53.760;9.678;2023-05-07T09:32:24;7.00;;;4.90;;
65373;SDS011;52070;53.760;9.678;2023-05-07T09:34:52;8.35;;;4.32;;
65373;SDS011;52070;53.760;9.678;2023-05-07T09:37:19;5.90;;;4.15;;
65373;SDS011;52070;53.760;9.678;2023-05-07T09:39:47;5.60;;;4.18;;
65373;SDS011;52070;53.760;9.678;2023-05-07T09:42:15;6.25;;;4.10;;
65373;SDS011;52070;53.760;9.678;2023-05-07T09:44:44;6.75;;;3.90;;
65373;SDS011;52070;53.760;9.678;2023-05-07T09:47:11;4.60;;;4.10;;
65373;SDS011;52070;53.760;9.678;2023-05-07T09:49:43;6.70;;;4.28;;
65373;SDS011;52070;53.760;9.678;2023-05-07T09:52:14;7.07;;;4.50;;
65373;SDS011;52070;53.760;9.678;2023-05-07T09:54:42;5.10;;;4.43;;
65373;SDS011;52070;53.760;9.678;2023-05-07T09:57:10;6.63;;;4.10;;
65373;SDS011;52070;53.760;9.678;2023-05-07T09:59:38;5.00;;;4.07;;
65373;SDS011;52070;53.760;9.678;2023-05-07T10:02:07;5.68;;;4.10;;
65373;SDS011;52070;53.760;9.678;2023-05-07T10:04:36;5.28;;;3.72;;
65373;SDS011;52070;53.760;9.678;2023-05-07T10:07:04;5.93;;;3.85;;
65373;SDS011;52070;53.760;9.678;2023-05-07T10:09:32;5.47;;;3.70;;
65373;SDS011;52070;53.760;9.678;2023-05-07T10:11:59;5.05;;;3.60;;
65373;SDS011;52070;53.760;9.678;2023-05-07T10:14:26;8.55;;;4.18;;
65373;SDS011;52070;53.760;9.678;2023-05-07T10:16:54;4.75;;;3.83;;
65373;SDS011;52070;53.760;9.678;2023-05-07T10:19:24;5.65;;;3.63;;
65373;SDS011;52070;53.760;9.678;2023-05-07T10:21:54;6.95;;;3.47;;
65373;SDS011;52070;53.760;9.678;2023-05-07T10:24:25;5.03;;;3.80;;
65373;SDS011;52070;53.760;9.678;2023-05-07T10:26:56;6.43;;;3.88;;
65373;SDS011;52070;53.760;9.678;2023-05-07T10:29:29;7.30;;;3.87;;
65373;SDS011;52070;53.760;9.678;2023-05-07T10:32:06;5.93;;;3.80;;
65373;SDS011;52070;53.760;9.678;2023-05-07T10:34:45;7.68;;;3.47;;
65373;SDS011;52070;53.760;9.678;2023-05-07T10:37:16;5.57;;;3.50;;
65373;SDS011;52070;53.760;9.678;2023-05-07T10:39:44;5.20;;;3.70;;
65373;SDS011;52070;53.760;9.678;2023-05-07T10:42:12;6.25;;;3.50;;
65373;SDS011;52070;53.760;9.678;2023-05-07T10:44:40;4.32;;;3.40;;
65373;SDS011;52070;53.760;9.678;2023-05-07T10:47:07;4.18;;;3.35;;
65373;SDS011;52070;53.760;9.678;2023-05-07T10:49:35;4.30;;;3.40;;
65373;SDS011;52070;53.760;9.678;2023-05-07T10:52:12;7.47;;;3.35;;
65373;SDS011;52070;53.760;9.678;2023-05-07T10:54:41;4.70;;;3.15;;
65373;SDS011;52070;53.760;9.678;2023-05-07T11:00:01;3.75;;;3.20;;
65373;SDS011;52070;53.760;9.678;2023-05-07T11:05:32;5.57;;;3.70;;
65373;SDS011;52070;53.760;9.678;2023-05-07T11:08:01;5.43;;;3.17;;
65373;SDS011;52070;53.760;9.678;2023-05-07T11:10:47;4.13;;;3.25;;
65373;SDS011;52070;53.760;9.678;2023-05-07T11:13:16;3.55;;;3.00;;
65373;SDS011;52070;53.760;9.678;2023-05-07T11:15:44;5.95;;;3.22;;
65373;SDS011;52070;53.760;9.678;2023-05-07T11:18:12;5.13;;;3.40;;
65373;SDS011;52070;53.760;9.678;2023-05-07T11:20:47;4.50;;;3.55;;
65373;SDS011;52070;53.760;9.678;2023-05-07T11:26:08;5.88;;;3.38;;
65373;SDS011;52070;53.760;9.678;2023-05-07T11:28:37;4.50;;;3.22;;
65373;SDS011;52070;53.760;9.678;2023-05-07T11:31:04;5.50;;;3.30;;
65373;SDS011;52070;53.760;9.678;2023-05-07T11:33:32;4.47;;;3.17;;
65373;SDS011;52070;53.760;9.678;2023-05-07T11:35:59;4.38;;;3.13;;
65373;SDS011;52070;53.760;9.678;2023-05-07T11:38:27;5.97;;;3.30;;
65373;SDS011;52070;53.760;9.678;2023-05-07T11:40:56;5.22;;;3.10;;
65373;SDS011;52070;53.760;9.678;2023-05-07T11:43:27;4.32;;;3.10;;
65373;SDS011;52070;53.760;9.678;2023-05-07T11:45:54;3.50;;;2.78;;
65373;SDS011;52070;53.760;9.678;2023-05-07T11:48:21;4.07;;;2.60;;
65373;SDS011;52070;53.760;9.678;2023-05-07T11:50:52;3.40;;;2.72;;
65373;SDS011;52070;53.760;9.678;2023-05-07T11:53:19;3.88;;;2.72;;
65373;SDS011;52070;53.760;9.678;2023-05-07T11:55:47;5.22;;;3.05;;
65373;SDS011;52070;53.760;9.678;2023-05-07T11:58:20;5.10;;;3.05;;
65373;SDS011;52070;53.760;9.678;2023-05-07T12:00:49;3.50;;;2.65;;
65373;SDS011;52070;53.760;9.678;2023-05-07T12:03:16;3.97;;;2.67;;
65373;SDS011;52070;53.760;9.678;2023-05-07T12:05:44;3.53;;;2.60;;
65373;SDS011;52070;53.760;9.678;2023-05-07T12:08:13;3.72;;;2.45;;
65373;SDS011;52070;53.760;9.678;2023-05-07T12:10:40;4.43;;;2.70;;
65373;SDS011;52070;53.760;9.678;2023-05-07T12:13:13;2.70;;;2.50;;
65373;SDS011;52070;53.760;9.678;2023-05-07T12:15:41;2.53;;;2.33;;
65373;SDS011;52070;53.760;9.678;2023-05-07T12:18:09;2.60;;;2.40;;
65373;SDS011;52070;53.760;9.678;2023-05-07T12:20:37;2.80;;;2.10;;
65373;SDS011;52070;53.760;9.678;2023-05-07T12:23:05;3.50;;;2.00;;
65373;SDS011;52070;53.760;9.678;2023-05-07T12:25:32;2.88;;;2.30;;
65373;SDS011;52070;53.760;9.678;2023-05-07T12:28:01;4.43;;;2.10;;
65373;SDS011;52070;53.760;9.678;2023-05-07T12:30:30;2.50;;;2.30;;
65373;SDS011;52070;53.760;9.678;2023-05-07T12:32:58;3.83;;;2.10;;
65373;SDS011;52070;53.760;9.678;2023-05-07T12:35:29;2.65;;;2.25;;
65373;SDS011;52070;53.760;9.678;2023-05-07T12:37:57;3.45;;;2.08;;
65373;SDS011;52070;53.760;9.678;2023-05-07T12:40:34;2.45;;;2.17;;
65373;SDS011;52070;53.760;9.678;2023-05-07T12:43:02;6.28;;;2.30;;
65373;SDS011;52070;53.760;9.678;2023-05-07T12:45:29;2.45;;;1.90;;
65373;SDS011;52070;53.760;9.678;2023-05-07T12:47:57;2.38;;;2.10;;
65373;SDS011;52070;53.760;9.678;2023-05-07T12:50:32;3.55;;;1.98;;
65373;SDS011;52070;53.760;9.678;2023-05-07T12:52:59;4.13;;;1.90;;
65373;SDS011;52070;53.760;9.678;2023-05-07T12:55:28;3.78;;;2.60;;
65373;SDS011;52070;53.760;9.678;2023-05-07T12:57:55;2.33;;;2.10;;
65373;SDS011;52070;53.760;9.678;2023-05-07T13:00:32;2.10;;;1.90;;
65373;SDS011;52070;53.760;9.678;2023-05-07T13:03:00;2.30;;;2.10;;
65373;SDS011;52070;53.760;9.678;2023-05-07T13:05:27;3.22;;;2.00;;
65373;SDS011;52070;53.760;9.678;2023-05-07T13:07:56;2.80;;;2.10;;
65373;SDS011;52070;53.760;9.678;2023-05-07T13:10:23;2.90;;;2.03;;
65373;SDS011;52070;53.760;9.678;2023-05-07T13:12:50;3.00;;;1.90;;
65373;SDS011;52070;53.760;9.678;2023-05-07T13:15:18;5.25;;;2.00;;
65373;SDS011;52070;53.760;9.678;2023-05-07T13:17:45;2.03;;;1.73;;
65373;SDS011;52070;53.760;9.678;2023-05-07T13:20:12;2.78;;;2.10;;
65373;SDS011;52070;53.760;9.678;2023-05-07T13:22:39;2.20;;;1.70;;
65373;SDS011;52070;53.760;9.678;2023-05-07T13:25:08;2.20;;;1.83;;
65373;SDS011;52070;53.760;9.678;2023-05-07T13:27:35;4.30;;;2.05;;
65373;SDS011;52070;53.760;9.678;2023-05-07T13:30:03;2.65;;;1.80;;
65373;SDS011;52070;53.760;9.678;2023-05-07T13:34:58;2.38;;;1.85;;
65373;SDS011;52070;53.760;9.678;2023-05-07T13:37:25;2.55;;;1.52;;
65373;SDS011;52070;53.760;9.678;2023-05-07T13:39:52;2.22;;;1.60;;
65373;SDS011;52070;53.760;9.678;2023-05-07T13:42:20;2.35;;;1.40;;
65373;SDS011;52070;53.760;9.678;2023-05-07T13:44:47;1.98;;;1.65;;
65373;SDS011;52070;53.760;9.678;2023-05-07T13:47:14;3.22;;;1.88;;
65373;SDS011;52070;53.760;9.678;2023-05-07T13:49:41;2.85;;;1.55;;
65373;SDS011;52070;53.760;9.678;2023-05-07T13:52:08;2.30;;;1.90;;
65373;SDS011;52070;53.760;9.678;2023-05-07T13:54:34;4.15;;;1.60;;
65373;SDS011;52070;53.760;9.678;2023-05-07T13:57:01;2.47;;;1.60;;
65373;SDS011;52070;53.760;9.678;2023-05-07T13:59:30;2.50;;;1.50;;
65373;SDS011;52070;53.760;9.678;2023-05-07T14:01:57;2.05;;;1.60;;
65373;SDS011;52070;53.760;9.678;2023-05-07T14:04:24;1.75;;;1.50;;
65373;SDS011;52070;53.760;9.678;2023-05-07T14:06:51;3.67;;;2.03;;
65373;SDS011;52070;53.760;9.678;2023-05-07T14:09:17;1.85;;;1.70;;
65373;SDS011;52070;53.760;9.678;2023-05-07T14:11:44;7.28;;;2.55;;
65373;SDS011;52070;53.760;9.678;2023-05-07T14:14:13;3.58;;;1.73;;
65373;SDS011;52070;53.760;9.678;2023-05-07T14:16:41;2.50;;;1.70;;
65373;SDS011;52070;53.760;9.678;2023-05-07T14:19:08;1.80;;;1.40;;
65373;SDS011;52070;53.760;9.678;2023-05-07T14:21:35;4.25;;;1.42;;
65373;SDS011;52070;53.760;9.678;2023-05-07T14:24:02;2.42;;;1.42;;
65373;SDS011;52070;53.760;9.678;2023-05-07T14:26:29;4.25;;;1.33;;
65373;SDS011;52070;53.760;9.678;2023-05-07T14:28:56;1.48;;;1.38;;
65373;SDS011;52070;53.760;9.678;2023-05-07T14:31:23;1.25;;;1.15;;
65373;SDS011;52070;53.760;9.678;2023-05-07T14:33:52;3.40;;;1.60;;
65373;SDS011;52070;53.760;9.678;2023-05-07T14:36:19;1.95;;;1.60;;
65373;SDS011;52070;53.760;9.678;2023-05-07T14:38:48;1.95;;;1.48;;
65373;SDS011;52070;53.760;9.678;2023-05-07T14:41:15;2.35;;;1.30;;
65373;SDS011;52070;53.760;9.678;2023-05-07T14:43:42;1.90;;;1.58;;
65373;SDS011;52070;53.760;9.678;2023-05-07T14:46:15;3.35;;;1.38;;
65373;SDS011;52070;53.760;9.678;2023-05-07T14:48:43;3.80;;;1.50;;
65373;SDS011;52070;53.760;9.678;2023-05-07T14:51:12;2.33;;;1.60;;
65373;SDS011;52070;53.760;9.678;2023-05-07T14:53:40;1.75;;;1.50;;
65373;SDS011;52070;53.760;9.678;2023-05-07T14:56:08;2.38;;;1.60;;
65373;SDS011;52070;53.760;9.678;2023-05-07T14:58:35;1.77;;;1.60;;
65373;SDS011;52070;53.760;9.678;2023-05-07T15:01:03;1.70;;;1.60;;